View Race ResultsBlood, Sweat & Beers — February 25, 2017

Race Results2017 Blood, Sweat & Beers

Viewing Filtered Results

You are currently viewing only the Daylight 5K results for Blood, Sweat & Beers. Click here to view the full race results.

Daylight 5K Results

  Name Bib # Hometown Gender Age Age Group Time Time Back
1 Aaron Unger 197 Henderson, NV Male 35 M 30–39 [1] 27:47
2 Gary Lyon 216 Henderson, NV Male 29 M 20–29 [1] 29:21 + 1:34
3 Adrian Mora 221 King City, CA Male 17 M 10–19 [1] 30:03 + 2:16
4 William Mierow 292 Franklin, WI Male 41 M 40–49 [1] 32:13 + 4:26
5 James Alston 169 Box Elder, SD Male 57 M 50–59 [1] 32:19 + 4:32
6 Joseph Farrar 217 Henderson, NV Male 31 M 30–39 [2] 32:27 + 4:40
7 Allie Macadams 305 Henderson, AR Female 27 F 20–29 [1] 32:31 + 4:44
8 Johnathan Fletcher 289 Wilmington, AR Male 22 M 20–29 [2] 32:33 + 4:46
9 Laurie Ward 206 Las Vegas, AR Female 43 F 40–49 [1] 32:35 + 4:48
10 Maria Peredera 174 North Las Vegas, NV Female 24 F 20–29 [2] 32:46 + 4:59
11 Holly Mcnaught 167 Boulder City, NV Female 40 F 40–49 [2] 33:21 + 5:34
12 Skyler Bang 230 Auburn, ME Male 19 M 10–19 [2] 33:47 + 6:00
13 Don Frisch 278 Las Vegas, AR Male 57 M 50–59 [2] 33:59 + 6:12
14 Rick Rosario 290 Franklin, WI Male 36 M 30–39 [3] 34:00 + 6:13
15 Celeste Sportsman 341 Las Vegas, AR Female 44 F 40–49 [3] 34:07 + 6:20
16 Jodie Sacco 223 Las Vegas, NV Female 39 F 30–39 [1] 34:30 + 6:43
17 Krystal Gamez 273 Salinas, CA Male 23 M 20–29 [3] 34:32 + 6:45
18 Bryan Delatorre 274 Salinas, CA Male 24 M 20–29 [4] 34:32 + 6:45
19 Cody Picard 617 Male 16 M 10–19 [3] 34:37 + 6:50
20 David Ryan 182 Las Vegas, NV Male 33 M 30–39 [4] 34:57 + 7:10
21 Sherry Harney 306 Henderson, AR Female 52 F 50 – 59 [1] 36:06 + 8:19
22 Katie Frim 309 Las Vegas, AR Female 25 F 20–29 [3] 36:13 + 8:26
23 Katie Scott 300 Female 55 F 50 – 59 [2] 36:14 + 8:27
24 Daniel Lehman 152 Henderson, NV Male 30 M 30–39 [5] 36:45 + 8:58
25 Rachel Raymond 271 Henderson, NV Female 22 F 20–29 [4] 37:01 + 9:14
26 Kelly Klare 225 Henderson, NV Female 33 F 30–39 [2] 37:11 + 9:24
27 Dawn Froehlich 144 Las Vegas, NV Female 44 F 40–49 [4] 37:49 + 10:02
28 Tracey Shirley 168 Box Elder, SD Female 56 F 50 – 59 [3] 37:56 + 10:09
29 David Janssen 1089 Henderson, AR Male 43 M 40–49 [2] 39:04 + 11:17
30 Birdie Nickels 190 Henderson, NV Female 52 F 50 – 59 [4] 39:10 + 11:23
31 Cleofe Leynes 258 Las Vegas, NV Female 47 F 40–49 [5] 39:14 + 11:27
32 Mollie Doyle 187 Henderson, NV Female 53 F 50 – 59 [5] 39:59 + 12:12
33 Kendal Sarnecky 257 Henderson, NV Female 23 F 20–29 [5] 40:34 + 12:47
34 Ryan Church 281 Las Vegas, NV Male 42 M 40–49 [3] 40:49 + 13:02
35 Jill Richlen 288 Muskego, WI Female 37 F 30–39 [3] 41:36 + 13:49
36 Candice Perry 268 Henderson, NV Female 27 F 20–29 [6] 42:08 + 14:21
37 Samuel Donovan 307 Henderson, AR Male 11 M 10–19 [4] 42:09 + 14:22
38 Maribel Yoro 275 Las Vegas, NV Female 37 F 30–39 [4] 42:19 + 14:32
39 Breyen Canfield 277 Henderson, NV Male 30 M 30–39 [6] 42:22 + 14:35
40 Elaine Balestra 299 Nelson, AR Female 57 F 50 – 59 [6] 42:42 + 14:55
41 Nina Waldman 158 Las Vegas, NV Female 43 F 40–49 [6] 43:19 + 15:32
42 Kathryn Oehler 191 Las Vegas, NV Female 34 F 30–39 [5] 43:44 + 15:57
43 Nannette Young 136 Las Vegas, NV Female 54 F 50 – 59 [7] 44:11 + 16:24
44 Matthew Diggins 171 Henderson, NV Male 26 M 20–29 [5] 44:17 + 16:30
45 Rebecca Diggins 172 Henderson, NV Female 27 F 20–29 [7] 45:03 + 17:16
46 Phillip Cockrum 178 Las Vegas, NV Male 37 M 30–39 [7] 45:04 + 17:17
47 Sharon Cornell 308 Las Vegas, AR Female 51 F 50 – 59 [8] 45:39 + 17:52
48 Jessica Wishon 179 Las Vegas, NV Female 32 F 30–39 [6] 46:04 + 18:17
49 John Patton 263 Twentynine Palms, CA Male 44 M 40–49 [4] 47:44 + 19:57
50 Haley Lehman 151 Henderson, NV Female 29 F 20–29 [8] 47:53 + 20:06
51 Anthony Temple 279 Las Vegas, NV Male 15 M 10–19 [5] 48:40 + 20:53
52 Donna Jackson 301 Plano, AR Female 59 F 50 – 59 [9] 48:57 + 21:10
53 Hollie Chadwick 147 Henderson, NV Female 45 F 40–49 [7] 49:25 + 21:38
54 Sasha Endo 159 Las Vegas, NV Female 45 F 40–49 [8] 49:29 + 21:42
55 David Richlen 310 Muskego, AR Male 43 M 40–49 [5] 53:19 + 25:32
56 Jenny Thurman 199 Henderson, NV Female 35 F 30–39 [7] 53:31 + 25:44
57 Monique Young 256 Las Vegas, NV Female 43 F 40–49 [9] 53:32 + 25:45
58 Vivian Gamboa 195 Las Vegas, NV Female 27 F 20–29 [9] 53:42 + 25:55
59 Jamie Anderson 282 Henderson, NV Male 44 M 40–49 [6] 54:01 + 26:14
60 Hector Gonzalez 699 Male 16 M 10–19 [6] 54:08 + 26:21
61 Kim Young 205 Henderson, NV Female 59 F 50 – 59 [10] 55:52 + 28:05
62 Roseann Hill 252 Las Vegas, NV Female 49 F 40–49 [10] 56:23 + 28:36
63 Joanne Van Laeken 254 Las Vegas, NV Female 48 F 40–49 [11] 56:42 + 28:55
64 Sherlyn Fackrell 213 Panaca, NV Female 63 F > 60 [1] 59:48 + 32:01
65 Amy Walden 215 Las Vegas, NV Female 41 F 40–49 [12] 59:48 + 32:01
66 Unknown Runner 323 Las Vegas, NV Male 30 M 30–39 [8] 1:04:13 + 36:26
67 Jason Robinson 218 Henderson, NV Male 44 M 40–49 [7] 1:05:03 + 37:16
68 Kaid Robinson 220 Henderson, NV Male 6 M < 10 [1] 1:05:03 + 37:16
69 Amy Lau 303 Potomac Falls, AR Female 40 F 40–49 [13] 1:07:00 + 39:13
70 Joseph Stubitz 243 Henderson, NV Male 32 M 30–39 [9] 1:09:28 + 41:41
71 Cris Stubitz 245 Henderson, NV Female 35 F 30–39 [8] 1:10:31 + 42:44
72 Jill Mierow 664 Franklin, AR Female 40 F 40–49 [14] 2:01:20 + 1:33:33
73 Jay Johnson 304 Sartell, AR Male 57 M 50–59 [3] 4:14:31 + 3:46:44